createdAt,value
2018-07-26T00:00:05.471Z,1009.38
2018-07-26T00:01:05.504Z,1009.40
2018-07-26T00:02:05.391Z,1009.37
2018-07-26T00:03:19.473Z,1009.38
2018-07-26T00:04:11.489Z,1009.35
2018-07-26T00:05:05.437Z,1009.36
2018-07-26T00:06:05.537Z,1009.40
2018-07-26T00:07:05.529Z,1009.37
2018-07-26T00:08:05.582Z,1009.36
2018-07-26T00:09:05.528Z,1009.37
2018-07-26T00:10:05.580Z,1009.37
2018-07-26T00:11:05.492Z,1009.36
2018-07-26T00:12:05.603Z,1009.35
2018-07-26T00:13:05.991Z,1009.35
2018-07-26T00:14:05.495Z,1009.35
2018-07-26T00:15:05.617Z,1009.38
2018-07-26T00:16:05.471Z,1009.38
2018-07-26T00:17:05.710Z,1009.40
2018-07-26T00:18:05.594Z,1009.41
2018-07-26T00:19:05.593Z,1009.41
2018-07-26T00:20:05.230Z,1009.40
2018-07-26T00:21:19.511Z,1009.40
2018-07-26T00:22:06.159Z,1009.41
2018-07-26T00:23:05.506Z,1009.38
2018-07-26T00:24:05.616Z,1009.42
2018-07-26T00:25:06.200Z,1009.44
2018-07-26T00:26:05.601Z,1009.47
2018-07-26T00:27:05.616Z,1009.43
2018-07-26T00:28:05.630Z,1009.43
2018-07-26T00:29:11.770Z,1009.43
2018-07-26T00:30:05.525Z,1009.42
2018-07-26T00:31:05.546Z,1009.40
2018-07-26T00:32:11.490Z,1009.38
2018-07-26T00:33:05.570Z,1009.40
2018-07-26T00:34:05.557Z,1009.38
2018-07-26T00:35:06.159Z,1009.38
2018-07-26T00:36:06.110Z,1009.38
2018-07-26T00:37:05.639Z,1009.38
2018-07-26T00:38:05.639Z,1009.40
2018-07-26T00:39:05.655Z,1009.38
2018-07-26T00:40:05.882Z,1009.38
2018-07-26T00:41:05.564Z,1009.35
2018-07-26T00:42:05.608Z,1009.37
2018-07-26T00:43:06.000Z,1009.34
2018-07-26T00:44:05.702Z,1009.35
2018-07-26T00:45:05.572Z,1009.35
2018-07-26T00:46:05.640Z,1009.34
2018-07-26T00:47:05.616Z,1009.34
2018-07-26T00:48:06.125Z,1009.34
2018-07-26T00:49:11.499Z,1009.35
2018-07-26T00:50:11.429Z,1009.34
2018-07-26T00:51:05.619Z,1009.33
2018-07-26T00:52:05.628Z,1009.37
2018-07-26T00:53:05.246Z,1009.36
2018-07-26T00:54:07.647Z,1009.36
2018-07-26T00:55:05.649Z,1009.35
2018-07-26T00:56:07.624Z,1009.32
2018-07-26T00:57:11.470Z,1009.35
2018-07-26T00:58:05.248Z,1009.35
2018-07-26T00:59:05.672Z,1009.32
2018-07-26T01:00:05.999Z,1009.33
2018-07-26T01:01:05.659Z,1009.32
2018-07-26T01:02:05.550Z,1009.27
2018-07-26T01:03:05.691Z,1009.26
2018-07-26T01:04:11.459Z,1009.29
2018-07-26T01:05:12.137Z,1009.27
2018-07-26T01:06:05.657Z,1009.25
2018-07-26T01:07:05.938Z,1009.24
2018-07-26T01:08:05.795Z,1009.28
2018-07-26T01:09:05.684Z,1009.24
2018-07-26T01:10:05.740Z,1009.26
2018-07-26T01:11:05.650Z,1009.27
2018-07-26T01:12:11.478Z,1009.29
2018-07-26T01:13:11.466Z,1009.25
2018-07-26T01:14:07.478Z,1009.26
2018-07-26T01:15:05.963Z,1009.29
2018-07-26T01:16:05.790Z,1009.25
2018-07-26T01:17:07.736Z,1009.22
2018-07-26T01:18:07.502Z,1009.26
2018-07-26T01:19:07.528Z,1009.29
2018-07-26T01:20:05.711Z,1009.24
2018-07-26T01:21:07.479Z,1009.20
2018-07-26T01:22:07.644Z,1009.23
2018-07-26T01:23:06.027Z,1009.16
2018-07-26T01:24:06.088Z,1009.20
2018-07-26T01:25:06.016Z,1009.19
2018-07-26T01:26:06.028Z,1009.16
2018-07-26T01:27:05.965Z,1009.18
2018-07-26T01:28:06.002Z,1009.21
2018-07-26T01:29:06.140Z,1009.19
2018-07-26T01:30:06.003Z,1009.14
2018-07-26T01:31:06.368Z,1009.14
2018-07-26T01:32:06.017Z,1009.17
2018-07-26T01:33:06.146Z,1009.13
2018-07-26T01:34:05.960Z,1009.16
2018-07-26T01:35:12.165Z,1009.18
2018-07-26T01:36:05.379Z,1009.16
2018-07-26T01:37:05.383Z,1009.17
2018-07-26T01:38:06.025Z,1009.15
2018-07-26T01:39:05.455Z,1009.16
2018-07-26T01:40:05.970Z,1009.16
2018-07-26T01:41:19.655Z,1009.16
2018-07-26T01:42:06.249Z,1009.16
2018-07-26T01:43:06.015Z,1009.17
2018-07-26T01:44:06.034Z,1009.14
2018-07-26T01:45:06.030Z,1009.18
2018-07-26T01:46:06.494Z,1009.15
2018-07-26T01:47:06.488Z,1009.16
2018-07-26T01:48:05.385Z,1009.18
2018-07-26T01:49:06.157Z,1009.14
2018-07-26T01:50:06.019Z,1009.17
2018-07-26T01:51:06.001Z,1009.14
2018-07-26T01:52:06.163Z,1009.15
2018-07-26T01:53:06.043Z,1009.14
2018-07-26T01:54:06.175Z,1009.15
2018-07-26T01:55:06.157Z,1009.12
2018-07-26T01:56:05.997Z,1009.10
2018-07-26T01:57:05.952Z,1009.14
2018-07-26T01:58:06.152Z,1009.14
2018-07-26T01:59:06.220Z,1009.09
2018-07-26T02:00:05.351Z,1009.07
2018-07-26T02:01:06.018Z,1009.10
2018-07-26T02:02:06.028Z,1009.08
2018-07-26T02:03:05.658Z,1009.06
2018-07-26T02:04:05.683Z,1009.04
2018-07-26T02:05:05.993Z,1009.07
2018-07-26T02:06:06.164Z,1009.02
2018-07-26T02:07:06.022Z,1009.06
2018-07-26T02:08:05.975Z,1009.08
2018-07-26T02:09:06.075Z,1009.03
2018-07-26T02:10:06.157Z,1009.07
2018-07-26T02:11:06.166Z,1009.02
2018-07-26T02:12:06.034Z,1009.00
2018-07-26T02:13:05.484Z,1009.03
2018-07-26T02:14:06.035Z,1009.00
2018-07-26T02:15:06.025Z,1009.01
2018-07-26T02:16:06.167Z,1009.01
2018-07-26T02:17:06.028Z,1009.02
2018-07-26T02:18:05.695Z,1009.03
2018-07-26T02:19:07.679Z,1009.05
2018-07-26T02:20:20.166Z,1009.04
2018-07-26T02:21:06.164Z,1009.04
2018-07-26T02:22:06.166Z,1009.08
2018-07-26T02:23:06.165Z,1009.08
2018-07-26T02:24:05.985Z,1009.07
2018-07-26T02:25:06.004Z,1009.08
2018-07-26T02:26:05.960Z,1009.06
2018-07-26T02:27:05.944Z,1009.09
2018-07-26T02:28:05.967Z,1009.10
2018-07-26T02:29:05.969Z,1009.08
2018-07-26T02:30:05.955Z,1009.09
2018-07-26T02:31:06.271Z,1009.09
2018-07-26T02:33:05.678Z,1009.08
2018-07-26T02:34:06.191Z,1009.06
2018-07-26T02:35:05.935Z,1009.09
2018-07-26T02:36:12.193Z,1009.08
2018-07-26T02:37:05.474Z,1009.03
2018-07-26T02:38:05.974Z,1009.06
2018-07-26T02:39:06.174Z,1009.04
2018-07-26T02:40:05.955Z,1009.04
2018-07-26T02:41:06.175Z,1009.01
2018-07-26T02:42:06.196Z,1009.03
2018-07-26T02:43:06.012Z,1009.01
2018-07-26T02:44:06.193Z,1009.04
2018-07-26T02:45:06.183Z,1009.03
2018-07-26T02:47:06.199Z,1009.07
2018-07-26T02:48:06.196Z,1009.03
2018-07-26T02:49:06.196Z,1009.03
2018-07-26T02:50:06.198Z,1009.03
2018-07-26T02:51:06.195Z,1009.03
2018-07-26T02:52:06.193Z,1009.04
2018-07-26T02:53:06.176Z,1009.06
2018-07-26T02:54:06.045Z,1009.05
2018-07-26T02:55:05.959Z,1009.03
2018-07-26T02:56:05.957Z,1009.05
2018-07-26T02:57:05.972Z,1009.07
2018-07-26T02:58:05.680Z,1009.06
2018-07-26T02:59:06.006Z,1009.00
2018-07-26T03:00:06.028Z,1009.01
2018-07-26T03:01:05.972Z,1009.01
2018-07-26T03:02:06.032Z,1008.97
2018-07-26T03:03:06.014Z,1009.01
2018-07-26T03:04:06.725Z,1009.01
2018-07-26T03:05:06.044Z,1008.98
2018-07-26T03:06:06.064Z,1008.97
2018-07-26T03:07:06.151Z,1009.01
2018-07-26T03:08:06.003Z,1008.99
2018-07-26T03:09:06.253Z,1009.01
2018-07-26T03:10:06.055Z,1008.99
2018-07-26T03:11:06.056Z,1008.98
2018-07-26T03:12:06.011Z,1008.95
2018-07-26T03:13:06.077Z,1008.96
2018-07-26T03:14:06.032Z,1009.01
2018-07-26T03:15:06.032Z,1008.98
2018-07-26T03:16:06.190Z,1008.99
2018-07-26T03:17:06.027Z,1009.00
2018-07-26T03:18:06.034Z,1009.02
2018-07-26T03:19:06.039Z,1009.01
2018-07-26T03:20:06.032Z,1009.01
2018-07-26T03:21:06.061Z,1009.00
2018-07-26T03:22:06.005Z,1008.98
2018-07-26T03:23:06.219Z,1009.01
2018-07-26T03:24:05.999Z,1009.00
2018-07-26T03:25:12.041Z,1008.96
2018-07-26T03:26:05.626Z,1008.99
2018-07-26T03:27:06.056Z,1009.00
2018-07-26T03:28:06.051Z,1009.01
2018-07-26T03:29:05.678Z,1008.98
2018-07-26T03:30:06.048Z,1009.01
2018-07-26T03:31:06.047Z,1009.01
2018-07-26T03:32:12.199Z,1008.94
2018-07-26T03:33:12.200Z,1008.96
2018-07-26T03:34:06.050Z,1008.95
2018-07-26T03:35:06.193Z,1008.93
2018-07-26T03:36:12.559Z,1008.95
2018-07-26T03:37:12.053Z,1008.97
2018-07-26T03:38:06.052Z,1008.94
2018-07-26T03:39:06.031Z,1008.95
2018-07-26T03:40:05.594Z,1008.96
2018-07-26T03:41:06.014Z,1008.97
2018-07-26T03:42:06.029Z,1008.95
2018-07-26T03:43:06.038Z,1008.94
2018-07-26T03:44:06.264Z,1008.92
2018-07-26T03:45:06.042Z,1008.93
2018-07-26T03:46:06.089Z,1008.97
2018-07-26T03:47:06.065Z,1008.96
2018-07-26T03:48:06.249Z,1008.93
2018-07-26T03:49:06.299Z,1008.93
2018-07-26T03:51:39.481Z,1008.95
2018-07-26T03:52:39.523Z,1008.97
2018-07-26T03:54:32.927Z,1008.94
2018-07-26T03:55:33.618Z,1008.98
2018-07-26T03:57:38.233Z,1008.97
2018-07-26T03:58:27.980Z,1009.01
2018-07-26T04:00:21.892Z,1009.00
2018-07-26T04:01:24.665Z,1009.01
2018-07-26T04:03:17.401Z,1009.01
2018-07-26T04:04:17.337Z,1008.98
2018-07-26T04:06:21.329Z,1008.95
2018-07-26T04:08:26.063Z,1008.97
2018-07-26T04:10:39.762Z,1008.95
2018-07-26T04:11:40.221Z,1008.97
2018-07-26T04:13:34.749Z,1008.97
2018-07-26T04:15:49.114Z,1008.99
2018-07-26T04:16:51.741Z,1009.00
2018-07-26T04:18:44.523Z,1009.06
2018-07-26T04:19:43.905Z,1009.02
2018-07-26T04:21:38.216Z,1009.07
2018-07-26T04:25:25.828Z,1009.06
2018-07-26T04:26:26.195Z,1009.07
2018-07-26T04:28:20.891Z,1009.09
2018-07-26T04:29:21.226Z,1009.10
2018-07-26T04:31:15.335Z,1009.15
2018-07-26T04:32:15.599Z,1009.15
2018-07-26T04:36:24.261Z,1009.16
2018-07-26T04:37:24.338Z,1009.18
2018-07-26T04:39:18.439Z,1009.25
2018-07-26T04:40:18.929Z,1009.24
2018-07-26T04:42:13.170Z,1009.25
2018-07-26T04:43:13.255Z,1009.25
2018-07-26T04:44:13.737Z,1009.25
2018-07-26T04:45:12.764Z,1009.27
2018-07-26T04:46:13.277Z,1009.30
2018-07-26T04:47:12.383Z,1009.28
2018-07-26T04:48:12.766Z,1009.25
2018-07-26T04:49:13.336Z,1009.27
2018-07-26T04:50:13.120Z,1009.30
2018-07-26T04:51:13.606Z,1009.29
2018-07-26T04:52:13.281Z,1009.30
2018-07-26T04:53:13.315Z,1009.29
2018-07-26T04:54:13.616Z,1009.27
2018-07-26T04:55:14.327Z,1009.25
2018-07-26T04:56:13.101Z,1009.24
2018-07-26T04:57:12.744Z,1009.26
2018-07-26T04:58:13.093Z,1009.24
2018-07-26T04:59:13.103Z,1009.27
2018-07-26T05:00:19.123Z,1009.29
2018-07-26T05:01:19.122Z,1009.27
2018-07-26T05:02:13.150Z,1009.27
2018-07-26T05:03:13.123Z,1009.29
2018-07-26T05:04:13.138Z,1009.27
2018-07-26T05:05:13.113Z,1009.29
2018-07-26T05:06:13.204Z,1009.24
2018-07-26T05:07:13.102Z,1009.29
2018-07-26T05:08:13.655Z,1009.29
2018-07-26T05:09:13.349Z,1009.28
2018-07-26T05:10:13.388Z,1009.31
2018-07-26T05:11:13.788Z,1009.29
2018-07-26T05:12:13.345Z,1009.30
2018-07-26T05:13:13.120Z,1009.31
2018-07-26T05:14:13.275Z,1009.31
2018-07-26T05:15:13.370Z,1009.33
2018-07-26T05:16:13.889Z,1009.31
2018-07-26T05:17:13.189Z,1009.30
2018-07-26T05:18:13.370Z,1009.31
2018-07-26T05:19:12.883Z,1009.32
2018-07-26T05:20:12.779Z,1009.31
2018-07-26T05:21:13.118Z,1009.29
2018-07-26T05:22:13.631Z,1009.28
2018-07-26T05:23:13.375Z,1009.28
2018-07-26T05:24:13.296Z,1009.29
2018-07-26T05:25:13.779Z,1009.34
2018-07-26T05:26:13.295Z,1009.28
2018-07-26T05:27:15.250Z,1009.33
2018-07-26T05:28:12.792Z,1009.29
2018-07-26T05:29:13.230Z,1009.32
2018-07-26T05:30:11.773Z,1009.37
2018-07-26T05:31:12.510Z,1009.39
2018-07-26T05:32:12.427Z,1009.34
2018-07-26T05:33:13.175Z,1009.38
2018-07-26T05:34:12.928Z,1009.35
2018-07-26T05:35:13.264Z,1009.35
2018-07-26T05:37:45.735Z,1009.39
2018-07-26T05:38:45.818Z,1009.39
2018-07-26T05:41:13.421Z,1009.40
2018-07-26T05:41:40.489Z,1009.39
2018-07-26T05:42:40.873Z,1009.40
2018-07-26T05:47:01.632Z,1009.48
2018-07-26T05:47:46.690Z,1009.46
2018-07-26T05:49:42.261Z,1009.39
2018-07-26T05:50:41.521Z,1009.36
2018-07-26T05:52:35.748Z,1009.41
2018-07-26T05:53:36.101Z,1009.40
2018-07-26T05:57:02.069Z,1009.42
2018-07-26T05:58:02.789Z,1009.43
2018-07-26T05:59:02.076Z,1009.44
2018-07-26T06:00:03.226Z,1009.43
2018-07-26T06:01:02.778Z,1009.47
2018-07-26T06:02:02.140Z,1009.45
2018-07-26T06:03:02.032Z,1009.47
2018-07-26T06:04:02.138Z,1009.47
2018-07-26T06:05:03.216Z,1009.50
2018-07-26T06:06:02.758Z,1009.48
2018-07-26T06:07:02.047Z,1009.52
2018-07-26T06:08:02.034Z,1009.51
2018-07-26T06:09:02.782Z,1009.55
2018-07-26T06:10:02.727Z,1009.55
2018-07-26T06:11:03.212Z,1009.53
2018-07-26T06:12:04.105Z,1009.53
2018-07-26T06:13:05.224Z,1009.49
2018-07-26T06:14:03.230Z,1009.53
2018-07-26T06:15:32.764Z,1009.52
2018-07-26T06:16:02.773Z,1009.53
2018-07-26T06:17:38.067Z,1009.50
2018-07-26T06:18:03.202Z,1009.52
2018-07-26T06:19:02.089Z,1009.54
2018-07-26T06:20:02.322Z,1009.54
2018-07-26T06:21:03.235Z,1009.53
2018-07-26T06:22:04.317Z,1009.49
2018-07-26T06:23:02.064Z,1009.51
2018-07-26T06:24:03.191Z,1009.52
2018-07-26T06:25:03.758Z,1009.54
2018-07-26T06:26:05.608Z,1009.54
2018-07-26T06:27:02.228Z,1009.49
2018-07-26T06:28:23.822Z,1009.52
2018-07-26T06:29:03.212Z,1009.51
2018-07-26T06:30:03.281Z,1009.51
2018-07-26T06:31:02.982Z,1009.53
2018-07-26T06:32:02.836Z,1009.54
2018-07-26T06:33:03.226Z,1009.55
2018-07-26T06:34:03.529Z,1009.53
2018-07-26T06:35:02.150Z,1009.58
2018-07-26T06:36:02.141Z,1009.57
2018-07-26T06:37:04.853Z,1009.58
2018-07-26T06:38:04.234Z,1009.58
2018-07-26T06:39:03.131Z,1009.55
2018-07-26T06:40:03.729Z,1009.53
2018-07-26T06:41:02.186Z,1009.55
2018-07-26T06:42:05.679Z,1009.54
2018-07-26T06:43:04.040Z,1009.53
2018-07-26T06:44:03.228Z,1009.53
2018-07-26T06:45:03.573Z,1009.54
2018-07-26T06:46:17.825Z,1009.55
2018-07-26T06:47:11.566Z,1009.53
2018-07-26T06:48:03.253Z,1009.54
2018-07-26T06:49:03.746Z,1009.56
2018-07-26T06:50:03.200Z,1009.56
2018-07-26T06:51:04.914Z,1009.57
2018-07-26T06:52:31.226Z,1009.58
2018-07-26T06:53:03.323Z,1009.56
2018-07-26T06:54:04.061Z,1009.54
2018-07-26T06:55:03.568Z,1009.56
2018-07-26T06:56:04.020Z,1009.61
2018-07-26T06:57:03.230Z,1009.61
2018-07-26T06:58:05.801Z,1009.61
2018-07-26T06:59:04.019Z,1009.59
2018-07-26T07:00:03.484Z,1009.60
2018-07-26T07:01:04.299Z,1009.62
2018-07-26T07:02:09.500Z,1009.58
2018-07-26T07:03:38.854Z,1009.54
2018-07-26T07:04:03.538Z,1009.59
2018-07-26T07:07:07.680Z,1009.57
2018-07-26T07:08:03.553Z,1009.54
2018-07-26T07:09:03.627Z,1009.57
2018-07-26T07:10:05.300Z,1009.56
2018-07-26T07:11:04.608Z,1009.58
2018-07-26T07:12:03.889Z,1009.58
2018-07-26T07:13:04.061Z,1009.57
2018-07-26T07:14:23.934Z,1009.57
2018-07-26T07:15:04.120Z,1009.54
2018-07-26T07:16:04.127Z,1009.59
2018-07-26T07:17:04.237Z,1009.58
2018-07-26T07:18:03.727Z,1009.58
2018-07-26T07:19:04.103Z,1009.53
2018-07-26T07:20:03.578Z,1009.56
2018-07-26T07:21:17.736Z,1009.57
2018-07-26T07:22:10.045Z,1009.56
2018-07-26T07:23:03.957Z,1009.60
2018-07-26T07:24:06.054Z,1009.60
2018-07-26T07:25:03.294Z,1009.62
2018-07-26T07:26:03.997Z,1009.60
2018-07-26T07:27:06.425Z,1009.64
2018-07-26T07:28:03.875Z,1009.68
2018-07-26T07:29:03.692Z,1009.65
2018-07-26T07:30:03.768Z,1009.65
2018-07-26T07:31:06.063Z,1009.67
2018-07-26T07:32:18.276Z,1009.65
2018-07-26T07:33:03.832Z,1009.66
2018-07-26T07:34:26.767Z,1009.65
2018-07-26T07:35:03.568Z,1009.63
2018-07-26T07:36:05.421Z,1009.64
2018-07-26T07:37:03.878Z,1009.61
2018-07-26T07:38:06.243Z,1009.61
2018-07-26T07:39:04.996Z,1009.61
2018-07-26T07:40:03.959Z,1009.63
2018-07-26T07:41:18.316Z,1009.58
2018-07-26T07:42:03.324Z,1009.60
2018-07-26T07:43:03.745Z,1009.61
2018-07-26T07:44:05.791Z,1009.60
2018-07-26T07:45:17.843Z,1009.61
2018-07-26T07:46:04.448Z,1009.60
2018-07-26T07:47:04.573Z,1009.58
2018-07-26T07:48:18.752Z,1009.58
2018-07-26T07:49:04.123Z,1009.57
2018-07-26T07:50:04.039Z,1009.57
2018-07-26T07:51:03.399Z,1009.55
2018-07-26T07:52:04.090Z,1009.51
2018-07-26T07:53:06.107Z,1009.50
2018-07-26T07:54:10.534Z,1009.52
2018-07-26T07:55:10.108Z,1009.47
2018-07-26T07:56:04.112Z,1009.51
2018-07-26T07:57:04.582Z,1009.50
2018-07-26T07:58:05.349Z,1009.52
2018-07-26T07:59:05.878Z,1009.50
2018-07-26T08:00:04.586Z,1009.46
2018-07-26T08:01:04.268Z,1009.53
2018-07-26T08:02:04.320Z,1009.48
2018-07-26T08:03:04.293Z,1009.50
2018-07-26T08:04:04.559Z,1009.53
2018-07-26T08:05:04.212Z,1009.52
2018-07-26T08:06:04.000Z,1009.52
2018-07-26T08:07:04.043Z,1009.50
2018-07-26T08:08:04.053Z,1009.54
2018-07-26T08:09:18.530Z,1009.51
2018-07-26T08:10:04.563Z,1009.56
2018-07-26T08:11:04.262Z,1009.51
2018-07-26T08:12:04.305Z,1009.55
2018-07-26T08:13:04.055Z,1009.55
2018-07-26T08:14:04.542Z,1009.58
2018-07-26T08:15:04.036Z,1009.56
2018-07-26T08:16:04.078Z,1009.56
2018-07-26T08:17:04.070Z,1009.54
2018-07-26T08:18:03.555Z,1009.55
2018-07-26T08:19:04.069Z,1009.54
2018-07-26T08:20:04.562Z,1009.56
2018-07-26T08:21:04.064Z,1009.55
2018-07-26T08:22:04.547Z,1009.53
2018-07-26T08:23:04.067Z,1009.53
2018-07-26T08:24:04.110Z,1009.55
2018-07-26T08:25:04.075Z,1009.55
2018-07-26T08:26:04.058Z,1009.56
2018-07-26T08:27:04.557Z,1009.59
2018-07-26T08:28:04.231Z,1009.57
2018-07-26T08:29:05.108Z,1009.58
2018-07-26T08:30:04.155Z,1009.58
2018-07-26T08:31:04.276Z,1009.57
2018-07-26T08:32:04.089Z,1009.55
2018-07-26T08:33:04.270Z,1009.60
2018-07-26T08:34:04.577Z,1009.57
2018-07-26T08:35:04.271Z,1009.55
2018-07-26T08:36:05.272Z,1009.54
2018-07-26T08:37:04.321Z,1009.53
2018-07-26T08:38:04.330Z,1009.55
2018-07-26T08:39:04.084Z,1009.53
2018-07-26T08:40:04.006Z,1009.51
2018-07-26T08:42:37.227Z,1009.53
2018-07-26T08:43:36.939Z,1009.54
2018-07-26T08:45:37.331Z,1009.52
2018-07-26T08:47:45.281Z,1009.48
2018-07-26T08:48:45.236Z,1009.49
2018-07-26T08:49:45.712Z,1009.49
2018-07-26T08:50:45.280Z,1009.51
2018-07-26T08:51:45.448Z,1009.47
2018-07-26T08:52:45.217Z,1009.48
2018-07-26T08:53:45.565Z,1009.50
2018-07-26T08:54:45.545Z,1009.47
2018-07-26T08:55:45.806Z,1009.47
2018-07-26T08:56:45.661Z,1009.50
2018-07-26T08:57:45.868Z,1009.46
2018-07-26T08:58:45.808Z,1009.48
2018-07-26T08:59:45.542Z,1009.46
2018-07-26T09:00:47.186Z,1009.49
2018-07-26T09:01:45.361Z,1009.49
2018-07-26T09:02:45.381Z,1009.48
2018-07-26T09:03:46.034Z,1009.47
2018-07-26T09:04:45.848Z,1009.45
2018-07-26T09:05:47.836Z,1009.40
2018-07-26T09:06:45.797Z,1009.38
2018-07-26T09:07:45.065Z,1009.38
2018-07-26T09:08:45.777Z,1009.42
2018-07-26T09:09:45.504Z,1009.42
2018-07-26T09:10:45.592Z,1009.44
2018-07-26T09:11:45.377Z,1009.43
2018-07-26T09:12:45.311Z,1009.45
2018-07-26T09:13:45.724Z,1009.45
2018-07-26T09:14:45.296Z,1009.44
2018-07-26T09:15:45.454Z,1009.47
2018-07-26T09:16:45.934Z,1009.38
2018-07-26T09:17:45.469Z,1009.38
2018-07-26T09:18:45.901Z,1009.36
2018-07-26T09:21:18.914Z,1009.38
2018-07-26T09:22:17.978Z,1009.37
2018-07-26T09:26:27.857Z,1009.41
2018-07-26T09:27:28.774Z,1009.35
2018-07-26T09:28:27.354Z,1009.37
2018-07-26T09:29:27.335Z,1009.38
2018-07-26T09:30:27.142Z,1009.36
2018-07-26T09:31:27.151Z,1009.36
2018-07-26T09:32:41.195Z,1009.39
2018-07-26T09:33:27.712Z,1009.36
2018-07-26T09:34:27.183Z,1009.36
2018-07-26T09:35:42.000Z,1009.32
2018-07-26T09:36:27.207Z,1009.40
2018-07-26T09:37:27.205Z,1009.40
2018-07-26T09:38:27.491Z,1009.40
2018-07-26T09:39:27.446Z,1009.36
2018-07-26T09:40:27.223Z,1009.36
2018-07-26T09:41:41.936Z,1009.29
2018-07-26T09:43:36.679Z,1009.32
2018-07-26T09:44:27.725Z,1009.31
2018-07-26T09:45:27.188Z,1009.34
2018-07-26T09:46:27.203Z,1009.33
2018-07-26T09:47:41.515Z,1009.34
2018-07-26T09:48:28.014Z,1009.32
2018-07-26T09:49:27.267Z,1009.31
2018-07-26T09:50:27.994Z,1009.34
2018-07-26T09:51:27.933Z,1009.31
2018-07-26T09:52:27.859Z,1009.31
2018-07-26T09:53:27.754Z,1009.26
2018-07-26T09:54:57.849Z,1009.18
2018-07-26T09:57:00.256Z,1009.20
2018-07-26T09:57:59.849Z,1009.21
2018-07-26T09:59:00.215Z,1009.19
2018-07-26T10:00:14.909Z,1009.26
2018-07-26T10:01:00.619Z,1009.25
2018-07-26T10:02:01.487Z,1009.25
2018-07-26T10:02:59.922Z,1009.19
2018-07-26T10:05:33.168Z,1009.17
2018-07-26T10:06:32.861Z,1009.21
2018-07-26T10:08:27.069Z,1009.11
2018-07-26T10:09:27.368Z,1009.14
2018-07-26T10:11:29.129Z,1009.16
2018-07-26T10:13:35.878Z,1009.15
2018-07-26T10:15:50.448Z,1009.19
2018-07-26T10:16:50.959Z,1009.15
2018-07-26T10:18:45.354Z,1009.14
2018-07-26T10:19:45.188Z,1009.16
2018-07-26T10:21:40.966Z,1009.09
2018-07-26T10:22:40.143Z,1009.11
2018-07-26T10:24:34.538Z,1009.08
2018-07-26T10:25:34.686Z,1009.07
2018-07-26T10:27:29.921Z,1009.11
2018-07-26T10:28:28.808Z,1009.07
2018-07-26T10:29:28.728Z,1009.15
2018-07-26T10:30:28.146Z,1009.11
2018-07-26T10:31:28.458Z,1009.15
2018-07-26T10:32:28.988Z,1009.13
2018-07-26T10:33:28.366Z,1009.12
2018-07-26T10:34:28.798Z,1009.10
2018-07-26T10:35:28.387Z,1009.14
2018-07-26T10:36:28.388Z,1009.07
2018-07-26T10:37:28.433Z,1009.14
2018-07-26T10:38:28.319Z,1009.13
2018-07-26T10:39:26.811Z,1009.04
2018-07-26T10:41:03.309Z,1009.12
2018-07-26T10:41:26.915Z,1009.08
2018-07-26T10:42:26.837Z,1009.08
2018-07-26T10:43:28.879Z,1009.10
2018-07-26T10:44:28.827Z,1009.12
2018-07-26T10:45:28.185Z,1009.08
2018-07-26T10:46:28.774Z,1009.10
2018-07-26T10:47:42.947Z,1009.08
2018-07-26T10:48:29.009Z,1009.07
2018-07-26T10:49:28.959Z,1009.10
2018-07-26T10:50:29.399Z,1009.08
2018-07-26T10:51:28.410Z,1009.05
2018-07-26T10:52:34.954Z,1009.01
2018-07-26T10:53:28.141Z,1009.02
2018-07-26T10:54:28.397Z,1008.99
2018-07-26T10:55:28.795Z,1008.97
2018-07-26T10:56:47.875Z,1009.01
2018-07-26T10:57:28.852Z,1008.99
2018-07-26T10:58:28.742Z,1008.96
2018-07-26T10:59:28.446Z,1008.97
2018-07-26T11:00:28.367Z,1009.05
2018-07-26T11:01:28.493Z,1008.99
2018-07-26T11:02:56.043Z,1009.01
2018-07-26T11:03:28.448Z,1008.97
2018-07-26T11:04:31.491Z,1008.96
2018-07-26T11:05:42.964Z,1008.92
2018-07-26T11:06:28.897Z,1008.92
2018-07-26T11:07:28.954Z,1008.92
2018-07-26T11:08:28.408Z,1008.93
2018-07-26T11:09:28.525Z,1008.95
2018-07-26T11:10:30.237Z,1008.94
2018-07-26T11:11:42.977Z,1008.90
2018-07-26T11:12:42.743Z,1008.98
2018-07-26T11:13:28.038Z,1008.93
2018-07-26T11:14:34.237Z,1008.93
2018-07-26T11:15:28.183Z,1008.93
2018-07-26T11:16:28.539Z,1008.91
2018-07-26T11:17:28.970Z,1008.91
2018-07-26T11:18:28.450Z,1008.96
2018-07-26T11:19:28.949Z,1008.90
2018-07-26T11:20:28.987Z,1008.95
2018-07-26T11:21:28.487Z,1008.92
2018-07-26T11:22:29.310Z,1008.91
2018-07-26T11:23:28.496Z,1008.91
2018-07-26T11:24:28.457Z,1008.94
2018-07-26T11:26:04.482Z,1008.88
2018-07-26T11:26:29.281Z,1008.92
2018-07-26T11:27:28.106Z,1008.91
2018-07-26T11:28:29.010Z,1008.94
2018-07-26T11:29:28.172Z,1008.90
2018-07-26T11:30:28.230Z,1008.88
2018-07-26T11:31:29.495Z,1008.87
2018-07-26T11:32:49.524Z,1008.89
2018-07-26T11:33:29.887Z,1008.81
2018-07-26T11:34:29.424Z,1008.83
2018-07-26T11:35:35.324Z,1008.78
2018-07-26T11:36:34.806Z,1008.80
2018-07-26T11:37:49.770Z,1008.81
2018-07-26T11:40:02.131Z,1008.75
2018-07-26T11:41:02.185Z,1008.80
2018-07-26T11:42:58.760Z,1008.82
2018-07-26T11:45:13.410Z,1008.80
2018-07-26T11:46:13.470Z,1008.80
2018-07-26T11:48:07.625Z,1008.77
2018-07-26T11:49:07.820Z,1008.67
2018-07-26T11:51:02.519Z,1008.66
2018-07-26T11:52:02.821Z,1008.72
2018-07-26T11:53:56.180Z,1008.67
2018-07-26T11:54:56.754Z,1008.64
2018-07-26T11:56:52.645Z,1008.73
2018-07-26T11:57:51.458Z,1008.68
2018-07-26T11:59:45.979Z,1008.69
2018-07-26T12:00:45.560Z,1008.65
2018-07-26T12:02:41.089Z,1008.60
2018-07-26T12:04:54.773Z,1008.66
2018-07-26T12:05:54.742Z,1008.65
2018-07-26T12:06:55.951Z,1008.65
2018-07-26T12:07:55.291Z,1008.63
2018-07-26T12:08:54.791Z,1008.64
2018-07-26T12:09:55.294Z,1008.63
2018-07-26T12:10:56.994Z,1008.68
2018-07-26T12:13:28.250Z,1008.62
2018-07-26T12:14:28.337Z,1008.64
2018-07-26T12:15:27.950Z,1008.58
2018-07-26T12:16:28.277Z,1008.56
2018-07-26T12:19:01.415Z,1008.57
2018-07-26T12:20:01.269Z,1008.55
2018-07-26T12:22:02.639Z,1008.52
2018-07-26T12:22:59.301Z,1008.53
2018-07-26T12:23:55.435Z,1008.54
2018-07-26T12:24:55.120Z,1008.50
2018-07-26T12:25:55.436Z,1008.49
2018-07-26T12:26:55.935Z,1008.54
2018-07-26T12:27:58.116Z,1008.53
2018-07-26T12:28:55.458Z,1008.54
2018-07-26T12:29:56.165Z,1008.62
2018-07-26T12:30:57.569Z,1008.60
2018-07-26T12:33:30.272Z,1008.70
2018-07-26T12:34:28.059Z,1008.85
2018-07-26T12:36:22.601Z,1008.99
2018-07-26T12:37:23.313Z,1009.01
2018-07-26T12:38:23.134Z,1009.04
2018-07-26T12:39:59.827Z,1009.03
2018-07-26T12:40:23.164Z,1009.08
2018-07-26T12:41:37.853Z,1009.07
2018-07-26T12:42:23.331Z,1009.10
2018-07-26T12:43:43.528Z,1008.93
2018-07-26T12:44:37.662Z,1009.01
2018-07-26T12:45:32.841Z,1009.14
2018-07-26T12:46:42.831Z,1009.05
2018-07-26T12:47:23.858Z,1009.09
2018-07-26T12:48:22.954Z,1009.14
2018-07-26T12:49:26.760Z,1009.11
2018-07-26T12:50:22.919Z,1009.08
2018-07-26T12:51:23.839Z,1009.13
2018-07-26T12:52:23.939Z,1008.51
2018-07-26T12:53:23.413Z,1009.03
2018-07-26T12:54:51.228Z,1009.06
2018-07-26T12:55:23.667Z,1009.08
2018-07-26T12:56:23.603Z,1009.02
2018-07-26T12:57:32.660Z,1009.01
2018-07-26T12:58:30.316Z,1008.78
2018-07-26T12:59:30.512Z,1009.08
2018-07-26T13:00:23.105Z,1008.50
2018-07-26T13:01:23.905Z,1008.49
2018-07-26T13:02:23.649Z,1008.53
2018-07-26T13:03:24.670Z,1008.49
2018-07-26T13:04:23.655Z,1008.48
2018-07-26T13:05:26.229Z,1008.49
2018-07-26T13:06:24.148Z,1008.45
2018-07-26T13:07:23.851Z,1008.65
2018-07-26T13:08:27.658Z,1008.34
2018-07-26T13:09:26.727Z,1008.37
2018-07-26T13:10:23.826Z,1008.39
2018-07-26T13:11:28.944Z,1008.40
2018-07-26T13:12:23.946Z,1008.43
2018-07-26T13:13:23.280Z,1008.42
2018-07-26T13:14:23.846Z,1008.44
2018-07-26T13:15:23.419Z,1008.77
2018-07-26T13:16:23.700Z,1008.40
2018-07-26T13:17:23.869Z,1009.00
2018-07-26T13:18:24.238Z,1009.04